createdAt,value
2022-10-02T00:02:30.497Z,4.40
2022-10-02T00:05:00.996Z,5.70
2022-10-02T00:07:36.049Z,4.40
2022-10-02T00:10:11.566Z,3.73
2022-10-02T00:12:40.773Z,3.73
2022-10-02T00:15:15.501Z,3.63
2022-10-02T00:17:45.322Z,4.53
2022-10-02T00:20:15.114Z,4.43
2022-10-02T00:22:48.936Z,4.30
2022-10-02T00:25:24.629Z,4.03
2022-10-02T00:28:08.155Z,3.57
2022-10-02T00:30:43.361Z,3.70
2022-10-02T00:33:15.315Z,3.77
2022-10-02T00:35:56.762Z,5.60
2022-10-02T00:38:35.519Z,3.67
2022-10-02T00:41:20.452Z,3.63
2022-10-02T00:43:59.837Z,3.20
2022-10-02T00:46:41.229Z,4.47
2022-10-02T00:49:44.274Z,3.10
2022-10-02T00:52:24.932Z,3.77
2022-10-02T00:55:05.316Z,3.77
2022-10-02T00:57:43.846Z,3.00
2022-10-02T01:00:15.078Z,3.67
2022-10-02T01:03:09.994Z,3.00
2022-10-02T01:05:38.460Z,3.20
2022-10-02T01:08:06.696Z,2.60
2022-10-02T01:10:35.520Z,3.20
2022-10-02T01:13:03.129Z,3.43
2022-10-02T01:15:34.667Z,2.73
2022-10-02T01:18:03.144Z,3.40
2022-10-02T01:20:35.812Z,3.97
2022-10-02T01:23:07.902Z,2.73
2022-10-02T01:25:37.154Z,2.53
2022-10-02T01:28:05.746Z,4.43
2022-10-02T01:30:36.185Z,3.93
2022-10-02T01:33:05.099Z,3.20
2022-10-02T01:35:35.417Z,3.47
2022-10-02T01:38:04.916Z,3.40
2022-10-02T01:40:33.942Z,3.80
2022-10-02T01:43:04.707Z,3.60
2022-10-02T01:45:45.225Z,3.33
2022-10-02T01:48:16.652Z,4.33
2022-10-02T01:50:51.674Z,4.10
2022-10-02T01:53:23.659Z,4.30
2022-10-02T01:55:54.132Z,3.80
2022-10-02T01:58:26.421Z,3.60
2022-10-02T02:01:02.577Z,4.17
2022-10-02T02:03:39.559Z,3.53
2022-10-02T02:06:10.977Z,3.60
2022-10-02T02:08:46.503Z,3.70
2022-10-02T02:11:15.721Z,3.10
2022-10-02T02:13:48.581Z,4.80
2022-10-02T02:16:22.169Z,4.07
2022-10-02T02:18:53.254Z,3.47
2022-10-02T02:21:23.950Z,4.10
2022-10-02T02:23:52.451Z,3.83
2022-10-02T02:26:21.236Z,3.30
2022-10-02T02:28:54.680Z,3.80
2022-10-02T02:31:24.635Z,3.80
2022-10-02T02:33:55.633Z,4.07
2022-10-02T02:36:26.024Z,2.87
2022-10-02T02:38:58.645Z,4.53
2022-10-02T02:41:28.800Z,3.57
2022-10-02T02:44:02.030Z,4.40
2022-10-02T02:46:33.895Z,4.43
2022-10-02T02:49:05.288Z,3.20
2022-10-02T02:51:37.021Z,4.10
2022-10-02T02:54:07.125Z,3.47
2022-10-02T02:56:35.178Z,4.27
2022-10-02T02:59:07.099Z,3.67
2022-10-02T03:01:35.057Z,3.03
2022-10-02T03:04:02.957Z,4.63
2022-10-02T03:06:37.759Z,4.13
2022-10-02T03:09:07.232Z,3.77
2022-10-02T03:11:49.295Z,4.00
2022-10-02T03:14:52.104Z,4.27
2022-10-02T03:17:27.235Z,3.47
2022-10-02T03:20:01.842Z,2.80
2022-10-02T03:22:46.988Z,3.77
2022-10-02T03:25:17.864Z,3.57
2022-10-02T03:27:49.652Z,3.80
2022-10-02T03:30:20.576Z,3.70
2022-10-02T03:32:51.361Z,2.80
2022-10-02T03:35:19.127Z,2.77
2022-10-02T03:37:50.052Z,2.90
2022-10-02T03:40:17.710Z,2.83
2022-10-02T03:42:45.252Z,3.60
2022-10-02T03:45:27.303Z,3.40
2022-10-02T03:48:02.121Z,3.60
2022-10-02T03:50:32.867Z,3.30
2022-10-02T03:53:10.739Z,2.93
2022-10-02T03:55:40.076Z,2.93
2022-10-02T03:58:12.758Z,3.17
2022-10-02T04:00:44.187Z,3.07
2022-10-02T04:03:16.250Z,3.53
2022-10-02T04:05:49.074Z,3.07
2022-10-02T04:08:19.556Z,3.30
2022-10-02T04:10:52.086Z,3.40
2022-10-02T04:13:24.698Z,2.67
2022-10-02T04:16:01.981Z,3.37
2022-10-02T04:18:35.116Z,3.00
2022-10-02T04:21:07.012Z,3.03
2022-10-02T04:23:36.807Z,2.70
2022-10-02T04:26:08.457Z,2.97
2022-10-02T04:28:39.023Z,2.97
2022-10-02T04:31:10.569Z,3.40
2022-10-02T04:33:39.981Z,4.23
2022-10-02T04:36:15.521Z,3.10
2022-10-02T04:39:00.704Z,3.00
2022-10-02T04:41:41.357Z,3.57
2022-10-02T04:44:17.579Z,3.43
2022-10-02T04:46:57.390Z,3.40
2022-10-02T04:49:33.886Z,3.40
2022-10-02T04:52:09.809Z,3.70
2022-10-02T04:54:49.042Z,3.77
2022-10-02T04:57:28.049Z,4.03
2022-10-02T05:00:06.297Z,3.83
2022-10-02T05:02:41.338Z,3.97
2022-10-02T05:05:18.494Z,3.70
2022-10-02T05:08:03.882Z,4.53
2022-10-02T05:10:41.369Z,3.50
2022-10-02T05:13:19.685Z,4.03
2022-10-02T05:16:00.011Z,4.10
2022-10-02T05:18:56.827Z,4.50
2022-10-02T05:22:02.968Z,5.40
2022-10-02T05:24:48.969Z,5.60
2022-10-02T05:27:38.729Z,4.20
2022-10-02T05:30:08.951Z,4.50
2022-10-02T05:33:04.667Z,5.70
2022-10-02T05:35:44.144Z,5.87
2022-10-02T05:38:23.307Z,5.53
2022-10-02T05:41:01.266Z,5.60
2022-10-02T05:43:34.927Z,5.50
2022-10-02T05:46:06.829Z,6.17
2022-10-02T05:48:39.434Z,5.47
2022-10-02T05:51:10.259Z,6.43
2022-10-02T05:53:42.036Z,6.30
2022-10-02T05:56:15.600Z,6.57
2022-10-02T05:58:50.775Z,6.20
2022-10-02T06:01:21.952Z,6.30
2022-10-02T06:03:52.524Z,5.33
2022-10-02T06:06:24.982Z,6.40
2022-10-02T06:08:58.455Z,7.27
2022-10-02T06:11:30.836Z,5.97
2022-10-02T06:14:00.258Z,6.43
2022-10-02T06:16:34.508Z,6.40
2022-10-02T06:19:06.773Z,6.50
2022-10-02T06:21:38.626Z,6.70
2022-10-02T06:24:12.426Z,6.30
2022-10-02T06:26:46.142Z,6.03
2022-10-02T06:29:21.578Z,6.27
2022-10-02T06:32:04.972Z,5.23
2022-10-02T06:34:32.634Z,4.53
2022-10-02T06:37:26.678Z,4.10
2022-10-02T06:40:13.737Z,4.20
2022-10-02T06:42:52.725Z,3.73
2022-10-02T06:45:25.372Z,4.03
2022-10-02T06:48:06.478Z,4.27
2022-10-02T06:50:52.472Z,3.30
2022-10-02T06:53:30.818Z,3.60
2022-10-02T06:56:04.063Z,2.90
2022-10-02T06:58:42.015Z,2.77
2022-10-02T07:01:15.503Z,2.50
2022-10-02T07:03:56.334Z,2.63
2022-10-02T07:06:37.127Z,2.87
2022-10-02T07:09:44.711Z,2.50
2022-10-02T07:12:39.991Z,2.57
2022-10-02T07:15:26.023Z,2.87
2022-10-02T07:18:01.424Z,2.30
2022-10-02T07:20:35.079Z,2.30
2022-10-02T07:23:16.280Z,3.00
2022-10-02T07:26:08.648Z,2.90
2022-10-02T07:28:42.231Z,2.47
2022-10-02T07:31:18.887Z,3.83
2022-10-02T07:33:54.111Z,2.37
2022-10-02T07:36:31.349Z,2.67
2022-10-02T07:39:06.330Z,2.50
2022-10-02T07:42:05.128Z,2.90
2022-10-02T07:45:05.520Z,2.43
2022-10-02T07:48:04.269Z,2.63
2022-10-02T07:50:37.619Z,2.60
2022-10-02T07:53:09.872Z,2.53
2022-10-02T07:55:41.515Z,2.13
2022-10-02T07:58:12.922Z,3.20
2022-10-02T08:00:44.492Z,2.67
2022-10-02T08:03:17.856Z,2.47
2022-10-02T08:05:48.376Z,2.80
2022-10-02T08:08:20.384Z,2.40
2022-10-02T08:10:50.141Z,2.67
2022-10-02T08:13:20.989Z,2.40
2022-10-02T08:15:51.968Z,2.30
2022-10-02T08:18:39.756Z,2.17
2022-10-02T08:21:12.663Z,2.67
2022-10-02T08:23:44.054Z,2.53
2022-10-02T08:26:16.164Z,2.90
2022-10-02T08:28:47.934Z,3.20
2022-10-02T08:31:15.927Z,3.00
2022-10-02T08:33:45.079Z,1.67
2022-10-02T08:36:44.241Z,3.00
2022-10-02T08:39:51.364Z,3.10
2022-10-02T08:42:38.649Z,2.30
2022-10-02T08:45:42.030Z,2.70
2022-10-02T08:48:58.310Z,2.73
2022-10-02T08:51:51.040Z,2.30
2022-10-02T08:54:35.008Z,2.37
2022-10-02T08:57:15.008Z,2.93
2022-10-02T08:59:57.172Z,3.03
2022-10-02T09:02:51.259Z,2.27
2022-10-02T09:05:39.435Z,2.03
2022-10-02T09:08:34.389Z,1.93
2022-10-02T09:11:35.902Z,2.13
2022-10-02T09:14:43.676Z,2.60
2022-10-02T09:17:44.344Z,2.83
2022-10-02T09:20:49.192Z,2.70
2022-10-02T09:23:36.754Z,5.00
2022-10-02T09:26:19.595Z,3.97
2022-10-02T09:29:19.637Z,4.53
2022-10-02T09:32:16.168Z,3.50
2022-10-02T09:34:58.381Z,3.50
2022-10-02T09:37:44.143Z,4.10
2022-10-02T09:40:32.979Z,4.03
2022-10-02T09:43:11.056Z,5.80
2022-10-02T09:45:56.347Z,4.60
2022-10-02T09:48:47.673Z,4.37
2022-10-02T09:51:50.981Z,4.20
2022-10-02T09:54:59.912Z,3.60
2022-10-02T09:57:58.443Z,4.27
2022-10-02T10:00:43.660Z,4.90
2022-10-02T10:03:36.338Z,6.20
2022-10-02T10:06:44.238Z,3.30
2022-10-02T10:09:36.396Z,5.03
2022-10-02T10:12:16.582Z,2.70
2022-10-02T10:15:11.369Z,3.47
2022-10-02T10:18:17.243Z,3.00
2022-10-02T10:21:08.901Z,2.83
2022-10-02T10:24:06.295Z,5.40
2022-10-02T10:27:06.267Z,2.93
2022-10-02T10:30:07.324Z,1.97
2022-10-02T10:33:09.148Z,2.70
2022-10-02T10:36:29.657Z,3.37
2022-10-02T10:39:06.925Z,1.97
2022-10-02T10:42:14.982Z,1.70
2022-10-02T10:45:15.222Z,2.37
2022-10-02T10:48:11.143Z,3.17
2022-10-02T10:50:55.637Z,1.90
2022-10-02T10:53:45.739Z,3.10
2022-10-02T10:56:26.055Z,2.37
2022-10-02T10:59:08.603Z,3.50
2022-10-02T11:01:45.217Z,3.63
2022-10-02T11:04:29.468Z,2.83
2022-10-02T11:07:15.589Z,3.60
2022-10-02T11:10:02.021Z,2.87
2022-10-02T11:12:57.248Z,3.60
2022-10-02T11:15:39.514Z,2.80
2022-10-02T11:18:22.234Z,3.50
2022-10-02T11:21:11.527Z,3.63
2022-10-02T11:24:15.927Z,2.00
2022-10-02T11:27:00.825Z,3.00
2022-10-02T11:29:49.463Z,2.87
2022-10-02T11:32:46.463Z,3.47
2022-10-02T11:35:23.415Z,3.30
2022-10-02T11:38:35.400Z,3.27
2022-10-02T11:41:20.613Z,3.63
2022-10-02T11:44:13.091Z,3.63
2022-10-02T11:46:56.328Z,2.60
2022-10-02T11:49:36.293Z,2.87
2022-10-02T11:52:47.339Z,2.03
2022-10-02T11:55:28.159Z,2.63
2022-10-02T11:58:06.107Z,3.43
2022-10-02T12:00:53.716Z,1.93
2022-10-02T12:03:25.275Z,2.57
2022-10-02T12:05:58.873Z,3.20
2022-10-02T12:08:34.818Z,3.70
2022-10-02T12:11:10.030Z,2.80
2022-10-02T12:13:48.664Z,2.40
2022-10-02T12:16:24.558Z,3.30
2022-10-02T12:19:00.507Z,3.03
2022-10-02T12:21:55.092Z,2.53
2022-10-02T12:24:52.673Z,2.80
2022-10-02T12:27:36.748Z,2.90
2022-10-02T12:30:08.821Z,6.50
2022-10-02T12:32:47.990Z,3.70
2022-10-02T12:35:25.073Z,3.43
2022-10-02T12:37:58.107Z,4.07
2022-10-02T12:40:31.795Z,4.20
2022-10-02T12:43:35.453Z,2.97
2022-10-02T12:46:35.681Z,4.00
2022-10-02T12:49:22.504Z,3.10
2022-10-02T12:52:07.858Z,3.30
2022-10-02T12:55:04.788Z,3.13
2022-10-02T12:57:53.442Z,3.30
2022-10-02T13:00:24.854Z,3.70
2022-10-02T13:03:33.532Z,3.40
2022-10-02T13:06:37.934Z,3.07
2022-10-02T13:09:16.832Z,3.20
2022-10-02T13:11:56.094Z,2.97
2022-10-02T13:14:48.637Z,3.93
2022-10-02T13:17:27.254Z,2.80
2022-10-02T13:20:03.238Z,2.60
2022-10-02T13:22:38.338Z,2.80
2022-10-02T13:25:26.941Z,2.90
2022-10-02T13:28:04.610Z,3.60
2022-10-02T13:30:36.149Z,2.47
2022-10-02T13:33:16.933Z,2.60
2022-10-02T13:35:54.121Z,2.93
2022-10-02T13:38:34.418Z,3.10
2022-10-02T13:41:13.236Z,3.60
2022-10-02T13:43:59.175Z,2.70
2022-10-02T13:46:38.377Z,2.77
2022-10-02T13:49:15.126Z,2.70
2022-10-02T13:51:48.996Z,2.63
2022-10-02T13:54:45.547Z,2.57
2022-10-02T13:57:27.588Z,2.30
2022-10-02T14:00:09.397Z,2.60
2022-10-02T14:02:55.734Z,3.83
2022-10-02T14:05:36.145Z,2.70
2022-10-02T14:08:19.022Z,2.43
2022-10-02T14:11:00.056Z,3.83
2022-10-02T14:13:43.177Z,3.70
2022-10-02T14:16:23.634Z,2.23
2022-10-02T14:19:20.093Z,2.57
2022-10-02T14:22:02.045Z,3.50
2022-10-02T14:24:57.014Z,2.77
2022-10-02T14:27:56.038Z,3.03
2022-10-02T14:30:24.982Z,3.50
2022-10-02T14:33:01.605Z,2.50
2022-10-02T14:35:36.352Z,2.33
2022-10-02T14:38:53.969Z,3.93
2022-10-02T14:41:33.700Z,4.30
2022-10-02T14:44:23.142Z,3.03
2022-10-02T14:47:01.981Z,2.97
2022-10-02T14:49:41.525Z,2.90
2022-10-02T14:52:19.741Z,2.07
2022-10-02T14:55:10.575Z,3.77
2022-10-02T14:58:01.333Z,3.40
2022-10-02T15:00:36.292Z,2.77
2022-10-02T15:03:25.558Z,2.90
2022-10-02T15:06:03.004Z,3.10
2022-10-02T15:08:35.541Z,3.53
2022-10-02T15:11:06.276Z,3.40
2022-10-02T15:13:41.242Z,2.73
2022-10-02T15:16:44.441Z,3.07
2022-10-02T15:19:17.749Z,3.00
2022-10-02T15:21:51.643Z,3.90
2022-10-02T15:24:29.778Z,3.00
2022-10-02T15:27:04.874Z,3.20
2022-10-02T15:29:40.472Z,3.47
2022-10-02T15:32:34.582Z,3.17
2022-10-02T15:35:11.548Z,3.40
2022-10-02T15:37:46.866Z,2.80
2022-10-02T15:40:24.982Z,2.83
2022-10-02T15:42:58.615Z,4.60
2022-10-02T15:45:44.395Z,4.70
2022-10-02T15:48:31.072Z,3.10
2022-10-02T15:51:02.711Z,3.20
2022-10-02T15:53:42.736Z,3.50
2022-10-02T15:56:28.370Z,3.30
2022-10-02T15:59:07.881Z,3.10
2022-10-02T16:01:45.253Z,2.50
2022-10-02T16:04:21.346Z,3.17
2022-10-02T16:07:16.682Z,3.80
2022-10-02T16:09:51.150Z,3.23
2022-10-02T16:12:38.981Z,3.60
2022-10-02T16:15:17.191Z,2.70
2022-10-02T16:18:07.486Z,4.37
2022-10-02T16:20:57.250Z,4.20
2022-10-02T16:23:44.557Z,3.30
2022-10-02T16:26:23.921Z,3.83
2022-10-02T16:28:57.587Z,3.67
2022-10-02T16:31:41.165Z,4.60
2022-10-02T16:34:20.637Z,3.87
2022-10-02T16:36:53.057Z,5.40
2022-10-02T16:39:33.749Z,4.33
2022-10-02T16:42:03.003Z,3.27
2022-10-02T16:44:58.248Z,3.70
2022-10-02T16:47:30.569Z,3.60
2022-10-02T16:50:01.928Z,4.13
2022-10-02T16:52:33.227Z,4.43
2022-10-02T16:55:09.209Z,4.80
2022-10-02T16:57:52.658Z,4.27
2022-10-02T17:00:25.066Z,4.10
2022-10-02T17:02:58.423Z,4.13
2022-10-02T17:05:29.627Z,4.03
2022-10-02T17:08:00.308Z,5.13
2022-10-02T17:10:39.214Z,3.93
2022-10-02T17:13:16.119Z,4.30
2022-10-02T17:15:48.165Z,4.50
2022-10-02T17:18:25.657Z,4.90
2022-10-02T17:20:55.971Z,4.30
2022-10-02T17:23:28.089Z,4.13
2022-10-02T17:26:02.233Z,4.17
2022-10-02T17:28:37.167Z,3.50
2022-10-02T17:31:19.843Z,4.20
2022-10-02T17:33:53.001Z,4.63
2022-10-02T17:36:24.967Z,4.40
2022-10-02T17:39:20.783Z,3.93
2022-10-02T17:41:53.904Z,4.10
2022-10-02T17:44:25.820Z,4.03
2022-10-02T17:47:14.505Z,4.07
2022-10-02T17:49:55.113Z,6.43
2022-10-02T17:52:45.235Z,3.83
2022-10-02T17:55:44.567Z,5.60
2022-10-02T17:58:16.870Z,4.23
2022-10-02T18:00:58.396Z,4.73
2022-10-02T18:03:54.429Z,4.97
2022-10-02T18:06:32.181Z,4.63
2022-10-02T18:09:30.402Z,6.30
2022-10-02T18:12:28.337Z,4.77
2022-10-02T18:15:27.163Z,4.30
2022-10-02T18:18:19.759Z,3.73
2022-10-02T18:20:54.971Z,4.70
2022-10-02T18:23:52.513Z,6.33
2022-10-02T18:26:30.244Z,5.40
2022-10-02T18:29:17.833Z,7.63
2022-10-02T18:31:58.337Z,5.33
2022-10-02T18:34:44.852Z,8.77
2022-10-02T18:37:26.652Z,14.17
2022-10-02T18:40:10.221Z,14.50
2022-10-02T18:42:47.399Z,4.87
2022-10-02T18:45:40.594Z,5.00
2022-10-02T18:48:23.089Z,4.13
2022-10-02T18:51:04.440Z,4.67
2022-10-02T18:53:52.159Z,5.10
2022-10-02T18:56:25.367Z,4.87
2022-10-02T18:59:05.445Z,4.60
2022-10-02T19:01:53.644Z,5.40
2022-10-02T19:04:35.580Z,5.47
2022-10-02T19:07:09.439Z,4.47
2022-10-02T19:09:37.168Z,13.40
2022-10-02T19:12:16.077Z,18.70
2022-10-02T19:14:45.866Z,9.87
2022-10-02T19:17:15.232Z,14.50
2022-10-02T19:19:43.574Z,7.03
2022-10-02T19:22:18.636Z,4.90
2022-10-02T19:24:48.959Z,6.43
2022-10-02T19:27:24.074Z,5.37
2022-10-02T19:29:55.795Z,5.03
2022-10-02T19:32:27.331Z,4.70
2022-10-02T19:35:01.133Z,5.33
2022-10-02T19:37:29.538Z,6.00
2022-10-02T19:39:59.804Z,4.53
2022-10-02T19:42:30.525Z,4.30
2022-10-02T19:45:02.951Z,3.83
2022-10-02T19:47:32.873Z,5.03
2022-10-02T19:50:02.658Z,5.00
2022-10-02T19:52:46.693Z,4.80
2022-10-02T19:55:24.008Z,5.60
2022-10-02T19:57:57.989Z,5.60
2022-10-02T20:00:25.911Z,6.00
2022-10-02T20:02:55.122Z,4.70
2022-10-02T20:05:25.015Z,4.87
2022-10-02T20:07:55.119Z,5.70
2022-10-02T20:10:29.785Z,14.73
2022-10-02T20:13:03.558Z,8.47
2022-10-02T20:15:55.508Z,5.60
2022-10-02T20:18:24.546Z,4.63
2022-10-02T20:20:55.271Z,4.87
2022-10-02T20:23:27.185Z,4.60
2022-10-02T20:25:58.329Z,4.13
2022-10-02T20:28:31.860Z,4.33
2022-10-02T20:31:02.567Z,4.80
2022-10-02T20:33:32.646Z,4.83
2022-10-02T20:36:03.213Z,4.10
2022-10-02T20:38:34.885Z,3.90
2022-10-02T20:41:08.998Z,4.90
2022-10-02T20:43:45.062Z,3.63
2022-10-02T20:46:36.789Z,3.77
2022-10-02T20:49:16.604Z,4.53
2022-10-02T20:52:19.902Z,4.73
2022-10-02T20:54:54.039Z,3.50
2022-10-02T20:58:00.618Z,4.30
2022-10-02T21:00:44.621Z,4.67
2022-10-02T21:03:39.428Z,4.60
2022-10-02T21:06:43.058Z,4.20
2022-10-02T21:09:39.639Z,3.27
2022-10-02T21:12:33.252Z,5.23
2022-10-02T21:15:29.361Z,3.13
2022-10-02T21:18:32.905Z,4.17
2022-10-02T21:21:28.650Z,4.70
2022-10-02T21:24:20.886Z,3.67
2022-10-02T21:27:03.249Z,4.10
2022-10-02T21:29:45.030Z,4.40
2022-10-02T21:32:33.529Z,4.93
2022-10-02T21:35:08.917Z,4.23
2022-10-02T21:37:47.874Z,3.87
2022-10-02T21:40:53.415Z,5.10
2022-10-02T21:43:45.077Z,3.87
2022-10-02T21:46:54.742Z,3.80
2022-10-02T21:49:54.304Z,4.70
2022-10-02T21:53:00.382Z,4.10
2022-10-02T21:55:59.900Z,5.50
2022-10-02T21:58:44.983Z,4.00
2022-10-02T22:01:30.693Z,3.67
2022-10-02T22:04:12.017Z,3.57
2022-10-02T22:06:45.229Z,3.77
2022-10-02T22:09:23.058Z,3.80
2022-10-02T22:12:05.545Z,4.47
2022-10-02T22:14:36.728Z,4.00
2022-10-02T22:17:13.167Z,4.50
2022-10-02T22:19:57.929Z,4.67
2022-10-02T22:22:35.473Z,3.80
2022-10-02T22:25:11.585Z,4.00
2022-10-02T22:27:50.785Z,6.07
2022-10-02T22:30:25.363Z,4.97
2022-10-02T22:33:11.959Z,4.40
2022-10-02T22:35:53.577Z,4.37
2022-10-02T22:38:26.681Z,3.90
2022-10-02T22:40:57.783Z,3.53
2022-10-02T22:43:30.605Z,3.10
2022-10-02T22:46:01.484Z,4.10
2022-10-02T22:48:36.236Z,3.30
2022-10-02T22:51:12.294Z,2.90
2022-10-02T22:53:42.593Z,3.37
2022-10-02T22:56:20.247Z,2.87
2022-10-02T22:58:56.467Z,3.87
2022-10-02T23:01:28.609Z,3.03
2022-10-02T23:03:59.986Z,2.90
2022-10-02T23:06:31.503Z,2.40
2022-10-02T23:09:11.760Z,2.60
2022-10-02T23:11:42.989Z,4.23
2022-10-02T23:14:20.863Z,3.07
2022-10-02T23:16:51.196Z,3.60
2022-10-02T23:19:25.599Z,3.80
2022-10-02T23:21:55.912Z,3.70
2022-10-02T23:24:29.575Z,3.40
2022-10-02T23:27:08.791Z,3.50
2022-10-02T23:29:45.696Z,3.17
2022-10-02T23:32:20.122Z,2.97
2022-10-02T23:34:52.774Z,2.77
2022-10-02T23:37:23.943Z,4.80
2022-10-02T23:39:55.528Z,2.50
2022-10-02T23:42:27.648Z,3.30
2022-10-02T23:45:00.995Z,4.03
2022-10-02T23:47:35.634Z,2.93
2022-10-02T23:50:03.589Z,3.37
2022-10-02T23:52:55.135Z,2.53
2022-10-02T23:55:45.920Z,2.53
2022-10-02T23:58:47.095Z,2.63
